createdAt,value
2019-02-06T00:02:23.692Z,2.47
2019-02-06T00:07:26.976Z,2.60
2019-02-06T00:12:30.274Z,3.70
2019-02-06T00:17:33.622Z,2.77
2019-02-06T00:22:36.917Z,2.90
2019-02-06T00:27:40.596Z,5.23
2019-02-06T00:32:43.959Z,2.40
2019-02-06T00:37:47.238Z,3.50
2019-02-06T00:42:50.507Z,3.53
2019-02-06T00:47:53.782Z,3.23
2019-02-06T00:52:57.347Z,3.30
2019-02-06T00:58:00.622Z,2.63
2019-02-06T01:08:13.058Z,3.13
2019-02-06T01:13:16.385Z,2.83
2019-02-06T01:18:19.693Z,3.63
2019-02-06T01:23:22.982Z,2.77
2019-02-06T01:28:26.278Z,3.10
2019-02-06T01:33:29.642Z,3.17
2019-02-06T01:38:32.914Z,2.33
2019-02-06T01:43:36.648Z,1.93
2019-02-06T01:48:39.940Z,4.20
2019-02-06T01:53:43.210Z,3.00
2019-02-06T01:58:46.503Z,3.47
2019-02-06T02:03:49.814Z,2.50
2019-02-06T02:08:55.030Z,2.57
2019-02-06T02:13:58.326Z,2.70
2019-02-06T02:19:01.649Z,3.47
2019-02-06T02:24:04.944Z,3.67
2019-02-06T02:29:08.236Z,2.90
2019-02-06T02:34:11.599Z,4.70
2019-02-06T02:39:14.901Z,5.43
2019-02-06T02:44:18.218Z,2.40
2019-02-06T02:49:21.519Z,3.70
2019-02-06T02:54:24.797Z,4.17
2019-02-06T02:59:28.068Z,3.47
2019-02-06T03:04:31.418Z,3.07
2019-02-06T03:09:34.691Z,3.93
2019-02-06T03:14:37.985Z,2.40
2019-02-06T03:19:41.258Z,2.63
2019-02-06T03:24:44.535Z,2.63
2019-02-06T03:29:47.802Z,2.87
2019-02-06T03:34:51.145Z,3.67
2019-02-06T03:39:54.429Z,2.80
2019-02-06T03:44:57.720Z,3.10
2019-02-06T03:50:01.074Z,2.67
2019-02-06T03:55:05.959Z,2.27
2019-02-06T04:00:34.419Z,1.63
2019-02-06T04:05:37.710Z,3.37
2019-02-06T04:10:41.005Z,5.00
2019-02-06T04:15:44.360Z,3.70
2019-02-06T04:20:47.687Z,2.53
2019-02-06T04:25:51.352Z,3.67
2019-02-06T04:30:54.638Z,2.57
2019-02-06T04:35:57.908Z,2.60
2019-02-06T04:41:01.180Z,3.73
2019-02-06T04:46:04.513Z,4.50
2019-02-06T04:51:08.138Z,3.07
2019-02-06T04:56:11.439Z,2.17
2019-02-06T05:01:14.756Z,3.43
2019-02-06T05:06:18.092Z,3.97
2019-02-06T05:11:21.329Z,3.50
2019-02-06T05:16:24.596Z,3.33
2019-02-06T05:21:27.866Z,3.87
2019-02-06T05:26:31.153Z,2.47
2019-02-06T05:31:34.448Z,3.60
2019-02-06T05:36:37.843Z,3.23
2019-02-06T05:41:41.109Z,3.23
2019-02-06T05:46:44.428Z,3.53
2019-02-06T05:51:47.696Z,4.83
2019-02-06T05:56:51.361Z,4.93
2019-02-06T06:01:54.725Z,3.73
2019-02-06T06:06:58.024Z,5.60
2019-02-06T06:12:01.364Z,2.90
2019-02-06T06:17:04.739Z,3.50
2019-02-06T06:22:08.024Z,5.10
2019-02-06T06:27:11.318Z,4.70
2019-02-06T06:32:14.595Z,3.40
2019-02-06T06:37:18.135Z,2.93
2019-02-06T06:42:24.142Z,4.40
2019-02-06T06:47:26.510Z,5.50
2019-02-06T06:52:29.799Z,4.33
2019-02-06T06:57:33.085Z,3.50
2019-02-06T07:02:36.756Z,5.90
2019-02-06T12:56:06.899Z,4.47
2019-02-06T13:01:10.171Z,5.27
2019-02-06T13:06:13.460Z,3.40
2019-02-06T13:11:16.923Z,3.97
2019-02-06T13:16:20.198Z,5.30
2019-02-06T13:21:23.516Z,4.70
2019-02-06T13:26:26.789Z,5.90
2019-02-06T13:31:30.052Z,5.43
2019-02-06T13:36:33.517Z,3.67
2019-02-06T13:41:36.798Z,3.70
2019-02-06T13:46:40.093Z,2.73
2019-02-06T13:51:43.420Z,3.10
2019-02-06T13:56:46.715Z,4.47
2019-02-06T14:01:50.287Z,4.13
2019-02-06T14:06:53.549Z,5.40
2019-02-06T14:11:56.844Z,3.33
2019-02-06T14:17:00.125Z,4.23
2019-02-06T14:22:03.417Z,5.03
2019-02-06T14:27:13.057Z,4.23
2019-02-06T14:32:31.855Z,3.83
2019-02-06T14:37:41.189Z,3.40
2019-02-06T14:42:53.286Z,3.80
2019-02-06T14:48:27.194Z,6.83
2019-02-06T14:53:49.138Z,4.37
2019-02-06T14:59:13.044Z,3.50
2019-02-06T15:04:39.057Z,3.57
2019-02-06T15:09:51.415Z,3.20
2019-02-06T15:15:19.265Z,4.97
2019-02-06T15:20:46.263Z,3.77
2019-02-06T15:26:09.266Z,4.40
2019-02-06T15:31:30.730Z,3.30
2019-02-06T15:36:42.950Z,5.50
2019-02-06T15:41:52.317Z,4.90
2019-02-06T15:47:11.013Z,4.53
2019-02-06T15:52:26.193Z,4.70
2019-02-06T15:57:50.688Z,4.70
2019-02-06T16:02:57.206Z,3.80
2019-02-06T16:08:28.121Z,3.73
2019-02-06T16:14:04.584Z,4.13
2019-02-06T16:19:19.602Z,4.47
2019-02-06T16:24:56.169Z,4.63
2019-02-06T16:30:08.342Z,4.90
2019-02-06T16:35:17.922Z,4.57
2019-02-06T16:40:57.215Z,3.97
2019-02-06T16:46:13.092Z,4.50
2019-02-06T16:51:19.653Z,4.77
2019-02-06T16:56:42.840Z,4.33
2019-02-06T17:01:52.087Z,3.40
2019-02-06T17:07:13.683Z,3.57
2019-02-06T17:12:29.380Z,4.77
2019-02-06T17:17:53.710Z,4.60
2019-02-06T17:23:12.399Z,4.70
2019-02-06T17:28:37.599Z,4.97
2019-02-06T17:34:02.089Z,5.50
2019-02-06T17:39:24.494Z,5.97
2019-02-06T17:44:33.835Z,5.33
2019-02-06T17:49:49.482Z,3.70
2019-02-06T17:55:19.344Z,5.40
2019-02-06T18:00:34.773Z,5.17
2019-02-06T18:05:40.225Z,5.90
2019-02-06T18:10:43.095Z,4.60
2019-02-06T18:15:46.453Z,4.13
2019-02-06T18:20:49.746Z,4.53
2019-02-06T18:25:53.400Z,6.27
2019-02-06T18:30:56.691Z,4.30
2019-02-06T18:36:00.371Z,6.60
2019-02-06T18:41:03.650Z,4.47
2019-02-06T18:46:06.995Z,5.07
2019-02-06T18:51:10.666Z,3.40
2019-02-06T18:56:13.953Z,6.80
2019-02-06T19:01:17.252Z,6.70
2019-02-06T19:06:20.929Z,6.30
2019-02-06T19:11:24.752Z,6.10
2019-02-06T19:16:28.079Z,5.57
2019-02-06T19:21:31.743Z,5.83
2019-02-06T19:26:35.047Z,5.80
2019-02-06T19:31:38.343Z,4.80
2019-02-06T19:36:41.694Z,4.80
2019-02-06T19:41:44.974Z,3.73
2019-02-06T19:46:48.274Z,5.67
2019-02-06T19:51:51.565Z,5.27
2019-02-06T19:56:54.917Z,5.60
2019-02-06T20:01:58.241Z,5.70
2019-02-06T20:07:01.552Z,7.03
2019-02-06T20:12:04.835Z,6.57
2019-02-06T20:17:08.128Z,4.60
2019-02-06T20:22:11.420Z,4.93
2019-02-06T20:27:14.753Z,7.00
2019-02-06T20:32:18.044Z,4.47
2019-02-06T20:37:21.411Z,4.30
2019-02-06T20:42:24.702Z,4.40
2019-02-06T20:47:28.264Z,5.80
2019-02-06T20:52:31.554Z,7.00
2019-02-06T20:57:34.842Z,7.23
2019-02-06T21:02:38.115Z,6.90
2019-02-06T21:07:41.405Z,6.93
2019-02-06T21:12:44.765Z,7.00
2019-02-06T21:17:48.055Z,6.73
2019-02-06T21:22:51.415Z,5.70
2019-02-06T21:27:54.983Z,6.50
2019-02-06T21:32:58.339Z,6.30
2019-02-06T21:38:01.642Z,6.90
2019-02-06T21:43:05.877Z,5.70
2019-02-06T21:48:09.632Z,5.80
2019-02-06T21:53:13.297Z,6.37
2019-02-06T21:58:16.585Z,8.30
2019-02-06T22:03:19.856Z,7.93
2019-02-06T22:08:23.145Z,6.93
2019-02-06T22:13:26.474Z,7.70
2019-02-06T22:18:29.936Z,6.83
2019-02-06T22:23:33.226Z,6.70
2019-02-06T22:28:36.519Z,5.87
2019-02-06T22:33:39.809Z,6.90
2019-02-06T22:38:43.117Z,7.53
2019-02-06T22:43:46.425Z,5.30
2019-02-06T22:48:49.730Z,8.23
2019-02-06T22:53:53.002Z,7.50
2019-02-06T22:58:56.284Z,6.03
2019-02-06T23:04:02.641Z,7.97
2019-02-06T23:09:07.069Z,6.33
2019-02-06T23:14:17.132Z,5.80
2019-02-06T23:19:15.353Z,6.40
2019-02-06T23:24:18.625Z,9.17
2019-02-06T23:29:21.900Z,7.80
2019-02-06T23:34:25.196Z,8.20
2019-02-06T23:39:28.487Z,7.00
2019-02-06T23:44:32.158Z,6.17
2019-02-06T23:49:35.448Z,5.67
2019-02-06T23:54:38.712Z,5.27
2019-02-06T23:59:42.000Z,6.77
